Time;durP1;ratioP1;P1;durP2;ratioP2;P2;SDS_P1;SDS_P2;PMS_P1;PMS_P2;Temp;Humidity;BMP_temperature;BMP_pressure;BME280_temperature;BME280_humidity;BME280_pressure;Samples;Min_cycle;Max_cycle;Signal;HPM_P1;HPM_P2
2024/01/29 00:01:47;;;;;;;5.00;3.00;;;5.70;99.90;;;;;;5022969;28;20608;-91
2024/01/29 00:04:13;;;;;;;5.77;3.13;;;6.40;99.90;;;;;;5012303;28;20411;-91
2024/01/29 00:06:39;;;;;;;5.25;3.00;;;5.80;99.90;;;;;;5011550;28;20423;-91
2024/01/29 00:09:05;;;;;;;4.40;3.10;;;6.00;99.90;;;;;;5012601;28;21111;-91
2024/01/29 00:11:33;;;;;;;4.65;2.80;;;5.70;99.90;;;;;;5011309;28;20408;-91
2024/01/29 00:13:59;;;;;;;4.55;2.75;;;5.60;99.90;;;;;;5012869;28;20399;-90
2024/01/29 00:16:25;;;;;;;5.23;2.80;;;6.20;99.90;;;;;;5016357;28;20416;-92
2024/01/29 00:18:51;;;;;;;4.63;2.97;;;5.60;99.90;;;;;;5032422;28;20413;-91
2024/01/29 00:21:16;;;;;;;5.50;2.90;;;5.50;99.90;;;;;;5032012;28;20526;-91
2024/01/29 00:23:42;;;;;;;4.72;3.35;;;5.50;99.90;;;;;;5031229;28;20943;-91
2024/01/29 00:26:08;;;;;;;4.60;2.78;;;5.50;99.90;;;;;;5031903;28;20571;-91
2024/01/29 00:28:34;;;;;;;4.82;3.13;;;5.40;99.90;;;;;;5030001;28;20892;-91
2024/01/29 00:31:00;;;;;;;5.05;2.88;;;5.40;99.90;;;;;;5030679;28;20404;-90
2024/01/29 00:33:25;;;;;;;3.83;2.90;;;5.40;99.90;;;;;;5010375;28;20490;-91
2024/01/29 00:35:51;;;;;;;5.50;3.40;;;5.30;99.90;;;;;;5012157;28;20465;-91
2024/01/29 00:38:17;;;;;;;4.82;3.17;;;5.20;99.90;;;;;;5010783;28;20415;-91
2024/01/29 00:40:42;;;;;;;5.85;3.33;;;5.20;99.90;;;;;;5011627;28;20422;-91
2024/01/29 00:43:08;;;;;;;5.20;3.30;;;5.20;99.90;;;;;;5011624;28;20411;-91
2024/01/29 00:45:34;;;;;;;5.10;3.45;;;5.20;99.90;;;;;;5010851;28;20505;-92
2024/01/29 00:47:59;;;;;;;6.35;3.10;;;5.20;99.90;;;;;;5012046;28;20404;-92
2024/01/29 00:50:25;;;;;;;5.93;3.20;;;5.10;99.90;;;;;;5010222;28;20403;-92
2024/01/29 00:52:51;;;;;;;5.57;3.10;;;5.20;99.90;;;;;;5011786;28;20890;-89
2024/01/29 00:55:16;;;;;;;5.10;3.13;;;5.60;99.90;;;;;;5010480;28;20399;-91
2024/01/29 00:57:42;;;;;;;6.25;3.65;;;4.90;99.90;;;;;;5028497;28;20460;-90
2024/01/29 01:00:09;;;;;;;5.47;3.60;;;4.90;99.90;;;;;;5010768;28;20449;-89
2024/01/29 01:02:35;;;;;;;5.07;3.40;;;4.90;99.90;;;;;;5011186;28;20423;-90
2024/01/29 01:05:01;;;;;;;6.03;3.72;;;4.90;99.90;;;;;;5011288;28;20473;-90
2024/01/29 01:07:28;;;;;;;6.30;3.70;;;4.80;99.90;;;;;;5010288;28;20447;-90
2024/01/29 01:09:53;;;;;;;5.53;3.63;;;5.30;99.90;;;;;;5011807;28;20986;-91
2024/01/29 01:12:19;;;;;;;6.70;3.87;;;4.90;99.90;;;;;;5009980;28;20546;-91
2024/01/29 01:14:45;;;;;;;5.75;3.78;;;5.10;99.90;;;;;;5011466;28;20411;-92
2024/01/29 01:17:10;;;;;;;5.85;3.60;;;5.20;99.90;;;;;;5010376;28;20447;-91
2024/01/29 01:19:36;;;;;;;6.37;3.90;;;5.30;99.90;;;;;;5011149;28;20410;-91
2024/01/29 01:22:02;;;;;;;6.20;3.77;;;4.80;99.90;;;;;;5011413;28;20418;-92
2024/01/29 01:24:27;;;;;;;5.78;3.80;;;5.00;99.90;;;;;;5010060;28;20762;-91
2024/01/29 01:26:53;;;;;;;6.15;3.92;;;4.50;99.90;;;;;;5011804;28;20411;-92
2024/01/29 01:29:19;;;;;;;5.18;3.78;;;4.70;99.90;;;;;;5009780;28;20898;-91
2024/01/29 01:31:45;;;;;;;5.30;3.60;;;4.80;99.90;;;;;;5016423;28;20416;-91
2024/01/29 01:34:10;;;;;;;6.13;3.83;;;4.70;99.90;;;;;;5029967;28;20405;-91
2024/01/29 01:36:36;;;;;;;7.38;4.10;;;4.70;99.90;;;;;;5030469;28;20401;-90
2024/01/29 01:39:02;;;;;;;4.47;3.53;;;4.70;99.90;;;;;;5029503;28;20496;-92
2024/01/29 01:41:27;;;;;;;5.50;3.93;;;4.80;99.90;;;;;;5029937;28;20413;-92
2024/01/29 01:43:53;;;;;;;6.37;4.20;;;4.90;99.90;;;;;;5030754;28;20413;-91
2024/01/29 01:46:21;;;;;;;5.53;4.15;;;4.90;99.90;;;;;;5029171;28;20442;-92
2024/01/29 01:48:52;;;;;;;7.05;4.10;;;4.50;99.90;;;;;;5031030;28;20401;-93
2024/01/29 01:51:19;;;;;;;6.78;4.10;;;4.50;99.90;;;;;;5045974;28;20416;-92
2024/01/29 01:53:45;;;;;;;6.50;3.97;;;4.60;99.90;;;;;;5030464;28;20397;-92
2024/01/29 01:56:12;;;;;;;7.30;4.53;;;4.30;99.90;;;;;;5029962;28;20436;-91
2024/01/29 01:58:41;;;;;;;5.88;4.32;;;4.60;99.90;;;;;;5030473;28;20857;-92
2024/01/29 02:01:08;;;;;;;5.05;3.90;;;4.50;99.90;;;;;;5030554;28;20485;-92
2024/01/29 02:03:33;;;;;;;6.10;4.15;;;4.50;99.90;;;;;;5010905;28;20403;-91
2024/01/29 02:05:59;;;;;;;6.35;4.40;;;4.90;99.90;;;;;;5010551;28;20453;-92
2024/01/29 02:08:25;;;;;;;5.80;4.20;;;4.60;99.90;;;;;;5009226;28;20419;-89
2024/01/29 02:10:53;;;;;;;5.60;4.07;;;4.60;99.90;;;;;;5011149;28;20403;-92
2024/01/29 02:13:19;;;;;;;6.70;4.40;;;4.20;99.90;;;;;;5009546;28;20403;-90
2024/01/29 02:15:45;;;;;;;5.53;4.15;;;4.10;99.90;;;;;;5010355;28;20418;-91
2024/01/29 02:18:11;;;;;;;6.20;4.13;;;4.20;99.90;;;;;;5010578;28;20443;-90
2024/01/29 02:20:37;;;;;;;6.65;4.18;;;4.50;99.90;;;;;;5009478;28;20414;-90
2024/01/29 02:23:03;;;;;;;6.00;4.40;;;4.10;99.90;;;;;;5010739;28;20424;-91
2024/01/29 02:25:29;;;;;;;5.88;4.22;;;4.10;99.90;;;;;;5008677;28;20446;-90
2024/01/29 02:27:55;;;;;;;6.88;4.60;;;4.00;99.90;;;;;;5011202;28;20438;-91
2024/01/29 02:30:21;;;;;;;6.50;4.37;;;4.00;99.90;;;;;;5009677;28;20944;-90
2024/01/29 02:32:46;;;;;;;6.43;4.63;;;4.00;99.90;;;;;;5010451;28;20411;-91
2024/01/29 02:35:12;;;;;;;6.75;4.60;;;4.00;99.90;;;;;;5010250;28;20403;-91
2024/01/29 02:37:38;;;;;;;6.18;4.63;;;3.90;99.90;;;;;;5009674;28;20405;-90
2024/01/29 02:40:04;;;;;;;6.30;4.47;;;3.90;99.90;;;;;;5010469;28;20403;-91
2024/01/29 02:42:30;;;;;;;5.70;4.68;;;3.90;99.90;;;;;;5009150;28;20890;-90
2024/01/29 02:44:56;;;;;;;7.25;4.45;;;3.90;99.90;;;;;;5037907;28;20436;-91
2024/01/29 02:47:21;;;;;;;6.60;4.72;;;3.90;99.90;;;;;;5029005;28;20405;-91
2024/01/29 02:49:47;;;;;;;6.68;4.82;;;3.80;99.90;;;;;;5030534;28;20426;-90
2024/01/29 02:52:13;;;;;;;7.10;4.63;;;4.10;99.90;;;;;;5032842;28;20413;-92
2024/01/29 02:54:39;;;;;;;8.82;4.90;;;3.80;99.90;;;;;;5016982;28;20415;-90
2024/01/29 02:57:05;;;;;;;7.57;5.03;;;3.80;99.90;;;;;;5013779;28;21080;-90
2024/01/29 02:59:31;;;;;;;6.82;5.07;;;4.10;99.90;;;;;;5013158;28;20442;-90
2024/01/29 03:01:57;;;;;;;7.28;4.93;;;3.70;99.90;;;;;;5013920;28;20421;-92
2024/01/29 03:04:23;;;;;;;7.03;4.72;;;3.70;99.90;;;;;;5012104;28;20498;-91
2024/01/29 03:06:48;;;;;;;6.70;5.03;;;4.00;99.90;;;;;;5013980;28;20437;-90
2024/01/29 03:09:14;;;;;;;7.53;4.80;;;3.90;99.90;;;;;;5012561;28;20419;-90
2024/01/29 03:11:41;;;;;;;5.97;4.47;;;3.90;99.90;;;;;;5013755;28;20555;-91
2024/01/29 03:14:06;;;;;;;6.05;4.75;;;3.80;99.90;;;;;;5013319;28;20411;-91
2024/01/29 03:16:32;;;;;;;6.72;4.80;;;4.10;99.90;;;;;;5012640;28;20407;-90
2024/01/29 03:18:58;;;;;;;6.97;5.27;;;4.10;99.90;;;;;;5013716;28;20419;-91
2024/01/29 03:21:24;;;;;;;6.20;4.70;;;3.90;99.90;;;;;;5012296;28;20497;-91
2024/01/29 03:23:50;;;;;;;6.25;4.70;;;3.80;99.90;;;;;;5014075;28;20824;-90
2024/01/29 03:26:15;;;;;;;7.88;5.20;;;3.70;99.90;;;;;;5012075;28;20455;-90
2024/01/29 03:28:41;;;;;;;6.50;4.63;;;3.70;99.90;;;;;;5014197;28;20415;-91
2024/01/29 03:31:07;;;;;;;6.65;5.22;;;3.60;99.90;;;;;;5012794;28;20411;-90
2024/01/29 03:33:32;;;;;;;7.93;5.27;;;3.80;99.90;;;;;;5012749;28;20414;-91
2024/01/29 03:36:02;;;;;;;7.17;5.30;;;3.80;99.90;;;;;;5013328;28;20425;-91
2024/01/29 03:38:28;;;;;;;7.73;5.20;;;3.40;99.90;;;;;;5028394;28;20407;-92
2024/01/29 03:40:54;;;;;;;7.93;5.50;;;3.40;99.90;;;;;;5013752;28;20411;-92
2024/01/29 03:43:19;;;;;;;8.45;5.90;;;3.40;99.90;;;;;;5011825;28;20401;-91
2024/01/29 03:45:46;;;;;;;8.55;5.35;;;3.50;99.90;;;;;;5013074;28;20438;-90
2024/01/29 03:48:12;;;;;;;7.60;5.80;;;3.30;99.90;;;;;;5011999;28;20415;-91
2024/01/29 03:50:38;;;;;;;7.47;5.50;;;3.50;99.90;;;;;;5012517;28;20399;-90
2024/01/29 03:53:03;;;;;;;7.10;5.23;;;3.30;99.90;;;;;;5012462;28;20456;-92
2024/01/29 03:55:29;;;;;;;9.27;5.95;;;3.20;99.90;;;;;;5011964;28;20898;-91
2024/01/29 03:57:55;;;;;;;9.18;5.78;;;3.20;99.90;;;;;;5028659;28;20888;-91
2024/01/29 04:00:22;;;;;;;7.63;5.40;;;3.10;99.90;;;;;;5031100;28;20393;-91
2024/01/29 04:02:49;;;;;;;7.78;5.78;;;3.10;99.90;;;;;;5031757;28;20901;-90
2024/01/29 04:05:16;;;;;;;8.90;5.93;;;3.20;99.90;;;;;;5031061;28;20445;-91
2024/01/29 04:07:42;;;;;;;7.07;5.53;;;3.10;99.90;;;;;;5032499;28;20420;-93
2024/01/29 04:10:08;;;;;;;7.80;6.00;;;3.00;99.90;;;;;;5029005;28;20506;-91
2024/01/29 04:12:34;;;;;;;7.63;5.97;;;3.00;99.90;;;;;;5011659;28;20502;-91
2024/01/29 04:14:59;;;;;;;7.73;6.30;;;3.10;99.90;;;;;;5022775;28;20409;-91
2024/01/29 04:17:25;;;;;;;6.43;5.78;;;2.90;99.90;;;;;;5030972;28;20445;-91
2024/01/29 04:19:51;;;;;;;8.98;6.50;;;2.90;99.90;;;;;;5032505;28;20412;-91
2024/01/29 04:22:17;;;;;;;8.07;6.35;;;2.90;99.90;;;;;;5030417;28;20406;-90
2024/01/29 04:24:43;;;;;;;7.55;5.90;;;2.90;99.90;;;;;;5023549;28;20796;-90
2024/01/29 04:27:08;;;;;;;7.43;5.85;;;2.90;99.90;;;;;;5027770;28;20407;-91
2024/01/29 04:29:34;;;;;;;8.77;6.20;;;2.90;99.90;;;;;;5012210;28;20458;-91
2024/01/29 04:32:00;;;;;;;7.73;6.43;;;3.30;99.90;;;;;;5011483;28;20419;-91
2024/01/29 04:34:25;;;;;;;6.78;5.75;;;2.80;99.90;;;;;;5011136;28;20485;-92
2024/01/29 04:36:51;;;;;;;8.32;6.10;;;3.40;99.90;;;;;;5012357;28;20416;-90
2024/01/29 04:39:17;;;;;;;7.00;5.90;;;3.20;99.90;;;;;;5010842;28;20412;-90
2024/01/29 04:41:42;;;;;;;7.80;5.53;;;3.50;99.90;;;;;;5012282;28;20545;-90
2024/01/29 04:44:08;;;;;;;7.72;6.40;;;3.40;99.90;;;;;;5027331;28;20770;-92
2024/01/29 04:46:34;;;;;;;7.72;6.38;;;3.40;99.90;;;;;;5011869;28;20415;-90
2024/01/29 04:48:59;;;;;;;7.37;6.10;;;3.40;99.90;;;;;;5011179;28;20921;-92
2024/01/29 04:51:26;;;;;;;7.53;5.83;;;3.40;99.90;;;;;;5011365;28;20453;-93
2024/01/29 04:53:52;;;;;;;8.05;6.35;;;3.50;99.90;;;;;;5012000;28;20407;-90
2024/01/29 04:56:18;;;;;;;8.93;6.30;;;3.50;99.90;;;;;;5010481;28;20468;-91
2024/01/29 04:58:43;;;;;;;8.07;6.05;;;3.90;99.90;;;;;;5011977;28;20481;-89
2024/01/29 05:01:09;;;;;;;8.43;6.35;;;3.60;99.90;;;;;;5010599;28;20410;-92
2024/01/29 05:03:36;;;;;;;7.55;6.40;;;3.60;99.90;;;;;;5011719;28;20419;-91
2024/01/29 05:06:01;;;;;;;9.65;6.28;;;3.60;99.90;;;;;;5026820;28;20471;-90
2024/01/29 05:08:27;;;;;;;8.00;6.63;;;3.70;99.90;;;;;;5011242;28;20422;-91
2024/01/29 05:10:53;;;;;;;8.40;6.68;;;3.60;99.90;;;;;;5020706;28;20422;-92
2024/01/29 05:13:19;;;;;;;8.40;6.45;;;3.70;99.90;;;;;;5058970;28;20433;-92
2024/01/29 05:15:45;;;;;;;8.43;6.70;;;3.70;99.90;;;;;;5031625;28;20467;-90
2024/01/29 05:18:11;;;;;;;8.43;6.20;;;3.70;99.90;;;;;;5029506;28;20918;-91
2024/01/29 05:20:37;;;;;;;9.38;6.75;;;3.70;99.90;;;;;;5031583;28;20950;-89
2024/01/29 05:23:03;;;;;;;8.73;6.90;;;4.00;99.90;;;;;;5046422;28;20393;-91
2024/01/29 05:25:29;;;;;;;9.13;6.80;;;3.90;99.90;;;;;;5030867;28;20461;-90
2024/01/29 05:27:54;;;;;;;10.13;7.33;;;3.80;99.90;;;;;;5030640;28;20954;-91
2024/01/29 05:30:20;;;;;;;7.83;6.57;;;3.80;99.90;;;;;;5030229;28;20448;-91
2024/01/29 05:32:46;;;;;;;10.50;7.40;;;4.20;99.90;;;;;;5030961;28;20406;-91
2024/01/29 05:35:11;;;;;;;9.23;7.20;;;3.90;99.90;;;;;;5046606;28;21146;-90
2024/01/29 05:37:37;;;;;;;7.55;6.43;;;4.20;99.90;;;;;;5031154;28;20424;-90
2024/01/29 05:40:05;;;;;;;7.47;6.53;;;4.30;99.90;;;;;;5045713;28;20409;-90
2024/01/29 05:42:31;;;;;;;8.05;6.85;;;3.90;99.90;;;;;;5030772;28;20405;-90
2024/01/29 05:44:57;;;;;;;9.25;7.00;;;4.00;99.90;;;;;;5029976;28;20425;-90
2024/01/29 05:47:23;;;;;;;7.37;6.50;;;4.00;99.90;;;;;;5030395;28;20977;-91
2024/01/29 05:49:49;;;;;;;8.07;6.60;;;4.00;99.90;;;;;;5016463;28;20456;-91
2024/01/29 05:52:14;;;;;;;9.03;6.93;;;4.00;99.90;;;;;;5026384;28;20498;-91
2024/01/29 05:54:40;;;;;;;7.97;6.60;;;4.00;99.90;;;;;;5011207;28;20889;-90
2024/01/29 05:57:10;;;;;;;10.73;6.97;;;4.00;99.90;;;;;;5009727;28;20411;-90
2024/01/29 05:59:38;;;;;;;8.40;6.90;;;4.20;99.90;;;;;;5010805;28;20403;-91
2024/01/29 06:02:03;;;;;;;8.50;7.05;;;4.10;99.90;;;;;;5009717;28;20741;-92
2024/01/29 06:04:29;;;;;;;8.95;6.75;;;4.00;99.90;;;;;;5010331;28;20403;-91
2024/01/29 06:06:55;;;;;;;8.97;7.03;;;4.10;99.90;;;;;;5009696;28;20419;-90
2024/01/29 06:09:22;;;;;;;8.45;6.93;;;4.10;99.90;;;;;;5009648;28;20410;-91
2024/01/29 06:11:51;;;;;;;7.78;6.85;;;4.40;99.90;;;;;;5010569;28;20906;-91
2024/01/29 06:14:18;;;;;;;8.27;6.50;;;4.10;99.90;;;;;;5012948;28;20409;-91
2024/01/29 06:16:44;;;;;;;8.25;7.25;;;4.10;99.90;;;;;;5019601;28;20926;-92
2024/01/29 06:19:15;;;;;;;9.67;7.57;;;4.10;99.90;;;;;;5025739;28;20452;-91
2024/01/29 06:21:43;;;;;;;9.45;7.22;;;4.10;99.90;;;;;;5030417;28;20463;-91
2024/01/29 06:24:08;;;;;;;9.05;7.32;;;4.10;99.90;;;;;;5029749;28;20912;-90
2024/01/29 06:26:34;;;;;;;8.95;7.28;;;3.90;99.90;;;;;;5027521;28;20617;-93
2024/01/29 06:29:00;;;;;;;8.10;7.30;;;3.80;99.90;;;;;;5023576;28;20765;-92
2024/01/29 06:31:26;;;;;;;10.23;7.70;;;4.00;99.90;;;;;;5031860;28;20713;-92
2024/01/29 06:33:53;;;;;;;8.60;7.70;;;4.20;99.90;;;;;;5034622;28;20416;-91
2024/01/29 06:36:20;;;;;;;8.25;7.18;;;4.20;99.90;;;;;;5032468;28;20888;-91
2024/01/29 06:38:46;;;;;;;9.52;7.65;;;4.10;99.90;;;;;;5034122;28;20408;-90
2024/01/29 06:41:22;;;;;;;10.00;7.80;;;4.10;99.90;;;;;;5032788;28;20405;-93
2024/01/29 06:43:49;;;;;;;9.17;7.97;;;4.40;99.90;;;;;;5033021;28;20500;-90
2024/01/29 06:46:15;;;;;;;8.85;7.75;;;4.20;99.90;;;;;;5026504;28;20442;-91
2024/01/29 06:48:40;;;;;;;9.25;7.60;;;4.10;99.90;;;;;;5012624;28;20415;-90
2024/01/29 06:51:06;;;;;;;11.70;7.75;;;4.30;99.90;;;;;;5013738;28;20411;-91
2024/01/29 06:53:34;;;;;;;8.68;7.55;;;4.30;99.90;;;;;;5012431;28;20407;-94
2024/01/29 06:56:02;;;;;;;10.77;8.30;;;4.30;99.90;;;;;;5018172;28;20585;-92
2024/01/29 06:58:28;;;;;;;10.77;8.63;;;4.50;99.90;;;;;;5049686;28;20852;-92
2024/01/29 07:00:54;;;;;;;12.25;8.75;;;4.30;99.90;;;;;;5031682;28;20413;-91
2024/01/29 07:03:21;;;;;;;11.07;8.68;;;4.30;99.90;;;;;;5033194;28;20414;-92
2024/01/29 07:05:50;;;;;;;9.73;8.10;;;4.30;99.90;;;;;;5031054;28;20975;-93
2024/01/29 07:08:16;;;;;;;9.57;8.55;;;4.60;99.90;;;;;;5019699;28;20766;-92
2024/01/29 07:10:42;;;;;;;10.32;7.97;;;4.30;99.90;;;;;;5011348;28;20403;-91
2024/01/29 07:13:08;;;;;;;9.82;8.00;;;4.50;99.90;;;;;;5013631;28;20414;-91
2024/01/29 07:15:34;;;;;;;9.55;7.93;;;4.30;99.90;;;;;;5012668;28;21225;-93
2024/01/29 07:18:00;;;;;;;10.20;8.53;;;4.60;99.90;;;;;;5013323;28;20410;-91
2024/01/29 07:20:31;;;;;;;9.37;8.17;;;4.40;99.90;;;;;;5013236;28;20884;-91
2024/01/29 07:22:57;;;;;;;9.73;7.63;;;4.50;99.90;;;;;;5012796;28;20763;-92
2024/01/29 07:25:23;;;;;;;10.43;8.63;;;4.70;99.90;;;;;;5013399;28;20438;-93
2024/01/29 07:27:48;;;;;;;9.87;8.80;;;4.40;99.90;;;;;;5012639;28;20391;-93
2024/01/29 07:30:14;;;;;;;10.45;8.65;;;4.00;99.90;;;;;;5033899;28;20445;-90
2024/01/29 07:32:40;;;;;;;9.65;8.05;;;4.40;99.90;;;;;;5031877;28;20398;-94
2024/01/29 07:35:07;;;;;;;9.43;8.07;;;4.40;99.90;;;;;;5032748;28;20436;-91
2024/01/29 07:37:33;;;;;;;10.63;8.00;;;4.40;99.90;;;;;;5030985;28;20631;-91
2024/01/29 07:39:59;;;;;;;9.70;8.07;;;4.40;99.90;;;;;;5030071;28;20412;-92
2024/01/29 07:42:24;;;;;;;9.83;8.27;;;4.40;99.90;;;;;;5012783;28;20411;-92
2024/01/29 07:44:51;;;;;;;9.73;8.30;;;4.50;99.90;;;;;;5011628;28;20980;-91
2024/01/29 07:47:17;;;;;;;11.60;8.98;;;4.80;99.90;;;;;;5013321;28;20484;-91
2024/01/29 07:49:42;;;;;;;9.60;8.50;;;4.40;99.90;;;;;;5011609;28;20450;-90
2024/01/29 07:52:09;;;;;;;9.27;8.27;;;4.50;99.90;;;;;;5029344;28;20427;-90
2024/01/29 07:54:35;;;;;;;9.82;8.18;;;4.50;99.90;;;;;;5028316;28;20421;-93
2024/01/29 07:57:02;;;;;;;10.63;8.50;;;4.70;99.90;;;;;;5012232;28;20884;-94
2024/01/29 07:59:29;;;;;;;10.15;9.05;;;4.40;99.90;;;;;;5012564;28;20418;-91
2024/01/29 08:01:55;;;;;;;10.23;8.98;;;4.50;99.90;;;;;;5011642;28;20410;-90
2024/01/29 08:04:20;;;;;;;9.63;8.60;;;4.50;99.90;;;;;;5012711;28;20415;-91
2024/01/29 08:06:46;;;;;;;10.32;8.75;;;4.50;99.90;;;;;;5027341;28;20435;-94
2024/01/29 08:09:12;;;;;;;10.48;8.80;;;4.50;99.90;;;;;;5012876;28;20490;-93
2024/01/29 08:11:37;;;;;;;10.70;9.20;;;4.70;99.90;;;;;;5010808;28;20415;-91
2024/01/29 08:14:03;;;;;;;10.70;9.20;;;4.60;99.90;;;;;;5012461;28;20403;-92
2024/01/29 08:16:29;;;;;;;10.77;9.18;;;4.60;99.90;;;;;;5012201;28;20450;-92
2024/01/29 08:18:57;;;;;;;10.15;9.07;;;4.70;99.90;;;;;;5011508;28;20410;-92
2024/01/29 08:21:23;;;;;;;11.32;9.20;;;4.70;99.90;;;;;;5032335;28;20405;-91
2024/01/29 08:23:48;;;;;;;10.03;9.03;;;4.70;99.90;;;;;;5030323;28;20546;-92
2024/01/29 08:26:14;;;;;;;10.10;8.87;;;5.00;99.90;;;;;;5031701;28;20438;-92
2024/01/29 08:28:39;;;;;;;10.93;9.10;;;4.80;99.90;;;;;;5030619;28;20413;-92
2024/01/29 08:31:06;;;;;;;10.02;9.02;;;4.80;99.90;;;;;;5032076;28;20409;-91
2024/01/29 08:33:32;;;;;;;10.45;9.35;;;5.50;99.90;;;;;;5031077;28;20409;-90
2024/01/29 08:35:58;;;;;;;11.35;9.57;;;4.80;99.90;;;;;;5048080;28;20448;-93
2024/01/29 08:38:24;;;;;;;10.67;9.47;;;4.80;99.90;;;;;;5031852;28;20638;-92
2024/01/29 08:40:50;;;;;;;10.83;9.40;;;4.80;99.90;;;;;;5030423;28;20445;-91
2024/01/29 08:43:16;;;;;;;11.17;9.97;;;4.80;99.90;;;;;;5031973;28;20418;-92
2024/01/29 08:45:42;;;;;;;12.88;9.80;;;5.20;99.90;;;;;;5030177;28;20812;-92
2024/01/29 08:48:07;;;;;;;12.38;10.10;;;5.10;99.90;;;;;;5048339;28;20417;-92
2024/01/29 08:50:34;;;;;;;10.77;9.75;;;5.00;99.90;;;;;;5030578;28;20423;-92
2024/01/29 08:53:00;;;;;;;11.27;10.07;;;5.00;99.90;;;;;;5031391;28;20401;-92
2024/01/29 08:55:26;;;;;;;10.88;9.50;;;5.60;99.90;;;;;;5031066;28;20406;-91
2024/01/29 08:57:52;;;;;;;11.93;9.68;;;5.60;99.90;;;;;;5030793;28;20463;-91
2024/01/29 09:00:18;;;;;;;11.93;9.73;;;5.60;99.90;;;;;;5031985;28;20405;-92
2024/01/29 09:02:44;;;;;;;11.25;10.10;;;5.00;99.90;;;;;;5017293;28;20779;-93
2024/01/29 09:05:10;;;;;;;11.35;9.93;;;5.00;99.90;;;;;;5011410;28;20456;-92
2024/01/29 09:07:36;;;;;;;12.97;10.20;;;5.30;99.90;;;;;;5010502;28;20431;-91
2024/01/29 09:10:02;;;;;;;11.75;10.55;;;5.10;99.90;;;;;;5011523;28;20810;-92
2024/01/29 09:12:28;;;;;;;11.68;9.90;;;5.30;99.90;;;;;;5026931;28;20407;-91
2024/01/29 09:14:53;;;;;;;11.40;10.20;;;5.20;99.90;;;;;;5011080;28;20613;-91
2024/01/29 09:17:19;;;;;;;11.80;10.50;;;5.70;99.90;;;;;;5011266;28;20483;-93
2024/01/29 09:19:45;;;;;;;11.03;9.93;;;5.00;99.90;;;;;;5010298;28;20461;-92
2024/01/29 09:22:14;;;;;;;10.93;9.70;;;5.30;99.90;;;;;;5011504;28;20407;-93
2024/01/29 09:24:40;;;;;;;10.98;9.70;;;5.50;99.90;;;;;;5009920;28;20850;-90
2024/01/29 09:27:05;;;;;;;10.95;9.75;;;5.40;99.90;;;;;;5011449;28;20443;-91
2024/01/29 09:29:33;;;;;;;11.18;10.02;;;5.60;99.90;;;;;;5026020;28;22264;-92
2024/01/29 09:31:59;;;;;;;12.73;10.35;;;5.60;99.90;;;;;;5011296;28;20473;-91
2024/01/29 09:34:25;;;;;;;11.70;10.27;;;5.40;99.90;;;;;;5010647;28;20429;-92
2024/01/29 09:36:51;;;;;;;13.13;10.02;;;6.40;99.90;;;;;;5010487;28;20459;-92
2024/01/29 09:39:18;;;;;;;13.40;11.10;;;6.20;99.90;;;;;;5011685;28;20438;-93
2024/01/29 09:41:46;;;;;;;12.25;10.93;;;5.80;99.90;;;;;;5025855;28;20525;-91
2024/01/29 09:44:12;;;;;;;12.13;10.80;;;5.90;99.90;;;;;;5011351;28;20417;-92
2024/01/29 09:46:40;;;;;;;12.45;10.50;;;6.50;99.90;;;;;;5009691;28;20455;-92
2024/01/29 09:49:06;;;;;;;12.63;11.10;;;6.40;99.90;;;;;;5010787;28;20422;-92
2024/01/29 09:51:33;;;;;;;13.60;11.57;;;6.20;99.90;;;;;;5010492;28;20493;-91
2024/01/29 09:54:03;;;;;;;13.07;11.23;;;6.20;99.90;;;;;;5010114;28;20521;-93
2024/01/29 09:56:29;;;;;;;11.55;10.30;;;6.30;99.90;;;;;;5010749;28;20510;-93
2024/01/29 09:58:55;;;;;;;12.73;11.25;;;7.20;99.90;;;;;;5009368;28;20505;-92
2024/01/29 10:01:22;;;;;;;12.40;11.10;;;6.70;99.90;;;;;;5010103;28;20414;-91
2024/01/29 10:03:49;;;;;;;12.68;11.25;;;6.60;99.90;;;;;;5027590;28;20409;-91
2024/01/29 10:06:15;;;;;;;12.20;10.82;;;6.80;99.90;;;;;;5030400;28;20961;-93
2024/01/29 10:08:42;;;;;;;15.30;11.97;;;7.10;99.90;;;;;;5029197;28;20405;-92
2024/01/29 10:11:08;;;;;;;14.50;11.30;;;6.90;99.90;;;;;;5029602;28;20791;-91
2024/01/29 10:13:37;;;;;;;15.23;11.10;;;6.90;99.90;;;;;;5029740;28;20405;-91
2024/01/29 10:16:02;;;;;;;13.43;12.02;;;7.00;99.90;;;;;;5028771;28;20476;-92
2024/01/29 10:18:30;;;;;;;14.43;11.48;;;7.10;99.90;;;;;;5030734;28;20488;-92
2024/01/29 10:21:01;;;;;;;13.75;11.40;;;7.30;99.90;;;;;;5028541;28;20411;-93
2024/01/29 10:23:27;;;;;;;14.85;11.82;;;7.30;99.90;;;;;;5029822;28;20432;-95
2024/01/29 10:26:00;;;;;;;12.30;11.00;;;8.00;99.90;;;;;;5028656;28;20436;-93
2024/01/29 10:28:26;;;;;;;14.10;11.85;;;7.30;99.90;;;;;;5046705;28;20421;-91
2024/01/29 10:30:56;;;;;;;13.40;11.25;;;7.50;99.90;;;;;;5030447;28;20401;-91
2024/01/29 10:33:22;;;;;;;13.27;11.87;;;7.40;99.90;;;;;;5029206;28;20828;-91
2024/01/29 10:35:49;;;;;;;14.65;11.73;;;7.40;99.90;;;;;;5030212;28;20467;-90
2024/01/29 10:38:20;;;;;;;13.13;11.73;;;7.60;99.90;;;;;;5024621;28;20431;-90
2024/01/29 10:40:46;;;;;;;13.33;11.83;;;7.50;99.90;;;;;;5010823;28;20438;-91
2024/01/29 10:43:19;;;;;;;13.73;11.38;;;7.70;99.90;;;;;;5009968;28;20461;-91
2024/01/29 10:45:49;;;;;;;14.67;11.93;;;8.10;99.90;;;;;;5009680;28;20431;-92
2024/01/29 10:48:22;;;;;;;12.88;11.48;;;7.70;99.90;;;;;;5027387;28;20423;-91
2024/01/29 10:50:50;;;;;;;13.82;11.45;;;7.60;99.90;;;;;;5009508;28;20423;-91
2024/01/29 10:53:17;;;;;;;13.52;11.73;;;7.60;99.90;;;;;;5027340;28;20407;-92
2024/01/29 10:55:49;;;;;;;12.40;11.10;;;7.90;99.90;;;;;;5009460;28;20407;-93
2024/01/29 10:58:16;;;;;;;14.95;11.45;;;7.60;99.90;;;;;;5010378;28;20937;-91
2024/01/29 11:00:43;;;;;;;13.53;12.13;;;7.80;99.90;;;;;;5009950;28;20446;-90
2024/01/29 11:03:14;;;;;;;13.17;11.77;;;7.80;99.90;;;;;;5020083;28;20409;-91
2024/01/29 11:05:44;;;;;;;13.82;11.50;;;7.70;99.90;;;;;;5046484;28;20429;-91
2024/01/29 11:08:18;;;;;;;14.57;12.43;;;7.80;99.90;;;;;;5028256;28;20422;-91
2024/01/29 11:10:44;;;;;;;14.93;12.68;;;7.80;99.90;;;;;;5024168;28;20442;-91
2024/01/29 11:13:11;;;;;;;15.63;12.52;;;7.80;99.90;;;;;;5012907;28;20419;-90
2024/01/29 11:15:37;;;;;;;14.13;12.00;;;7.90;99.90;;;;;;5013862;28;20414;-92
2024/01/29 11:18:04;;;;;;;16.90;13.73;;;8.10;99.90;;;;;;5021993;28;20401;-90
2024/01/29 11:20:33;;;;;;;19.63;13.82;;;7.90;99.90;;;;;;5049150;28;20983;-91
2024/01/29 11:23:02;;;;;;;23.63;14.25;;;7.90;99.90;;;;;;5033354;28;20405;-91
2024/01/29 11:25:29;;;;;;;23.88;15.38;;;7.80;99.90;;;;;;5031902;28;20743;-90
2024/01/29 11:27:58;;;;;;;23.42;15.70;;;7.90;99.90;;;;;;5033711;28;20419;-90
2024/01/29 11:30:26;;;;;;;22.55;15.65;;;7.90;99.90;;;;;;5020276;28;20510;-92
2024/01/29 11:33:16;;;;;;;20.55;15.38;;;8.20;99.90;;;;;;5013369;28;20442;-90
2024/01/29 11:35:42;;;;;;;20.90;15.30;;;8.00;99.90;;;;;;5029276;28;20419;-91
2024/01/29 11:38:11;;;;;;;19.17;14.43;;;8.10;99.90;;;;;;5012547;28;20399;-90
2024/01/29 11:40:46;;;;;;;20.77;15.27;;;8.10;99.90;;;;;;5017400;28;20411;-89
2024/01/29 11:43:17;;;;;;;23.07;15.57;;;8.20;99.90;;;;;;5006355;28;21186;-89
2024/01/29 11:46:05;;;;;;;19.85;14.88;;;8.30;99.90;;;;;;5013140;28;20439;-91
2024/01/29 11:48:31;;;;;;;21.63;15.38;;;8.40;99.90;;;;;;5013004;28;20419;-92
2024/01/29 11:50:57;;;;;;;25.05;16.30;;;8.40;99.90;;;;;;5032602;28;20412;-91
2024/01/29 11:53:27;;;;;;;25.83;16.23;;;8.40;99.90;;;;;;5021265;28;20412;-89
2024/01/29 11:55:54;;;;;;;28.25;17.50;;;8.50;99.90;;;;;;5019612;28;20498;-90
2024/01/29 11:58:22;;;;;;;32.72;18.63;;;8.30;99.90;;;;;;5024431;28;20814;-92
2024/01/29 12:00:49;;;;;;;36.50;18.95;;;8.30;99.90;;;;;;5031349;28;20405;-90
2024/01/29 12:03:38;;;;;;;34.15;18.48;;;8.30;99.90;;;;;;5031765;28;20413;-92
2024/01/29 12:06:04;;;;;;;33.15;18.98;;;8.30;99.90;;;;;;5024093;28;20505;-90
2024/01/29 12:08:30;;;;;;;34.35;18.65;;;8.70;99.90;;;;;;5039878;28;20951;-91
2024/01/29 12:11:01;;;;;;;34.87;19.97;;;8.30;99.90;;;;;;5023064;28;20418;-92
2024/01/29 12:13:27;;;;;;;36.30;20.37;;;8.20;99.90;;;;;;5028021;28;20426;-91
2024/01/29 12:15:55;;;;;;;42.57;22.00;;;8.20;99.90;;;;;;5032734;28;20394;-92
2024/01/29 12:18:25;;;;;;;44.22;22.83;;;8.20;99.90;;;;;;5031280;28;20412;-91
2024/01/29 12:20:54;;;;;;;44.20;22.88;;;8.40;99.90;;;;;;5031323;28;20421;-90
2024/01/29 12:23:23;;;;;;;41.30;22.55;;;8.20;99.90;;;;;;5013095;28;20910;-90
2024/01/29 12:25:56;;;;;;;43.03;23.33;;;8.20;99.90;;;;;;5010350;28;20435;-91
2024/01/29 12:28:23;;;;;;;39.42;22.73;;;8.30;99.90;;;;;;5012382;28;20415;-91
2024/01/29 12:31:06;;;;;;;39.05;22.02;;;8.20;99.90;;;;;;5027218;28;20497;-91
2024/01/29 12:33:33;;;;;;;41.40;22.77;;;8.20;99.90;;;;;;5028704;28;20417;-91
2024/01/29 12:36:19;;;;;;;49.17;23.85;;;8.20;99.90;;;;;;5020079;28;20467;-91
2024/01/29 12:38:54;;;;;;;45.80;23.83;;;7.90;99.90;;;;;;5030563;28;20421;-91
2024/01/29 12:41:20;;;;;;;47.23;24.50;;;8.30;99.90;;;;;;5031863;28;20505;-91
2024/01/29 12:43:50;;;;;;;47.03;23.38;;;8.50;99.90;;;;;;5022843;28;20473;-91
2024/01/29 12:46:16;;;;;;;46.28;23.58;;;8.50;99.90;;;;;;5025448;28;20832;-91
2024/01/29 12:48:42;;;;;;;43.78;22.42;;;8.50;99.90;;;;;;5017494;28;20521;-91